createdAt,value
2022-10-23T00:01:31.195Z,10.38
2022-10-23T00:04:00.101Z,10.36
2022-10-23T00:06:28.051Z,10.34
2022-10-23T00:08:55.162Z,10.31
2022-10-23T00:11:24.415Z,10.28
2022-10-23T00:13:53.219Z,10.29
2022-10-23T00:16:19.538Z,10.28
2022-10-23T00:18:45.851Z,10.24
2022-10-23T00:21:14.049Z,10.19
2022-10-23T00:23:41.092Z,10.13
2022-10-23T00:26:08.375Z,10.12
2022-10-23T00:28:34.930Z,10.10
2022-10-23T00:31:03.004Z,10.10
2022-10-23T00:33:29.484Z,10.09
2022-10-23T00:35:55.952Z,10.06
2022-10-23T00:38:22.535Z,10.06
2022-10-23T00:43:22.365Z,10.03
2022-10-23T00:45:49.039Z,10.04
2022-10-23T00:48:16.204Z,10.03
2022-10-23T00:50:43.009Z,10.01
2022-10-23T00:53:11.675Z,10.02
2022-10-23T00:55:39.555Z,10.01
2022-10-23T00:58:06.041Z,10.00
2022-10-23T01:00:52.404Z,9.95
2022-10-23T01:03:22.904Z,9.96
2022-10-23T01:06:12.582Z,9.95
2022-10-23T01:08:50.592Z,9.95
2022-10-23T01:11:20.488Z,9.92
2022-10-23T01:14:22.967Z,9.88
2022-10-23T01:16:55.235Z,9.86
2022-10-23T01:19:46.772Z,9.84
2022-10-23T01:22:44.431Z,9.79
2022-10-23T01:25:38.746Z,9.79
2022-10-23T01:28:11.754Z,9.79
2022-10-23T01:30:42.791Z,9.81
2022-10-23T01:33:25.641Z,9.79
2022-10-23T01:36:16.567Z,9.76
2022-10-23T01:38:56.251Z,9.75
2022-10-23T01:41:36.307Z,9.74
2022-10-23T01:44:17.614Z,9.75
2022-10-23T01:46:46.828Z,9.76
2022-10-23T01:49:14.850Z,9.76
2022-10-23T01:51:45.543Z,9.76
2022-10-23T01:54:14.256Z,9.73
2022-10-23T01:56:44.911Z,9.73
2022-10-23T01:59:18.471Z,9.71
2022-10-23T02:01:49.325Z,9.70
2022-10-23T02:04:23.504Z,9.69
2022-10-23T02:06:49.895Z,9.67
2022-10-23T02:09:16.410Z,9.68
2022-10-23T02:12:21.203Z,9.68
2022-10-23T02:15:00.477Z,9.71
2022-10-23T02:17:42.446Z,9.72
2022-10-23T02:20:19.718Z,9.69
2022-10-23T02:22:56.595Z,9.67
2022-10-23T02:25:33.478Z,9.66
2022-10-23T02:28:06.005Z,9.64
2022-10-23T02:30:35.660Z,9.63
2022-10-23T02:33:05.031Z,9.65
2022-10-23T02:35:31.607Z,9.63
2022-10-23T02:38:00.764Z,9.63
2022-10-23T02:40:41.749Z,9.63
2022-10-23T02:43:24.499Z,9.66
2022-10-23T02:46:02.451Z,9.66
2022-10-23T02:48:43.945Z,9.64
2022-10-23T02:51:18.788Z,9.62
2022-10-23T02:54:01.288Z,9.58
2022-10-23T02:56:36.642Z,9.56
2022-10-23T02:59:13.065Z,9.55
2022-10-23T03:01:49.592Z,9.53
2022-10-23T03:04:19.008Z,9.51
2022-10-23T03:06:45.791Z,9.53
2022-10-23T03:09:12.178Z,9.53
2022-10-23T03:11:38.515Z,9.69
2022-10-23T03:14:04.962Z,9.74
2022-10-23T03:16:31.295Z,9.72
2022-10-23T03:18:57.682Z,9.72
2022-10-23T03:21:24.111Z,9.70
2022-10-23T03:23:50.447Z,9.74
2022-10-23T03:26:17.108Z,9.77
2022-10-23T03:28:43.479Z,9.81
2022-10-23T03:31:09.880Z,9.84
2022-10-23T03:33:36.300Z,9.90
2022-10-23T03:36:02.837Z,9.93
2022-10-23T03:38:29.205Z,9.92
2022-10-23T03:40:55.602Z,9.92
2022-10-23T03:43:21.903Z,9.96
2022-10-23T03:45:48.313Z,9.94
2022-10-23T03:48:14.804Z,9.94
2022-10-23T03:50:41.117Z,9.91
2022-10-23T03:53:07.454Z,9.92
2022-10-23T03:55:33.777Z,9.93
2022-10-23T03:58:00.127Z,9.94
2022-10-23T04:00:26.434Z,9.94
2022-10-23T04:02:52.768Z,9.92
2022-10-23T04:05:19.099Z,9.92
2022-10-23T04:07:45.448Z,9.92
2022-10-23T04:10:11.810Z,9.92
2022-10-23T04:12:38.119Z,9.93
2022-10-23T04:15:04.986Z,9.94
2022-10-23T04:17:31.367Z,9.93
2022-10-23T04:19:57.814Z,9.95
2022-10-23T04:22:26.142Z,9.95
2022-10-23T04:24:54.680Z,9.95
2022-10-23T04:27:21.031Z,9.94
2022-10-23T04:29:47.401Z,9.95
2022-10-23T04:32:13.750Z,9.95
2022-10-23T04:34:40.059Z,9.95
2022-10-23T04:37:06.386Z,9.97
2022-10-23T04:39:32.692Z,9.95
2022-10-23T04:41:59.016Z,9.96
2022-10-23T04:44:25.320Z,9.98
2022-10-23T04:46:51.659Z,10.00
2022-10-23T04:49:18.004Z,9.99
2022-10-23T04:51:44.380Z,10.00
2022-10-23T04:54:11.860Z,10.03
2022-10-23T04:56:38.316Z,10.03
2022-10-23T05:01:32.054Z,10.01
2022-10-23T05:03:58.447Z,10.01
2022-10-23T05:06:24.808Z,10.04
2022-10-23T05:08:51.208Z,10.03
2022-10-23T05:11:17.517Z,10.03
2022-10-23T05:13:44.054Z,10.01
2022-10-23T05:16:12.892Z,10.02
2022-10-23T05:18:46.592Z,10.06
2022-10-23T05:21:23.417Z,10.07
2022-10-23T05:23:50.680Z,10.09
2022-10-23T05:26:17.096Z,10.09
2022-10-23T05:28:43.412Z,10.12
2022-10-23T05:31:09.851Z,10.13
2022-10-23T05:33:36.928Z,10.18
2022-10-23T05:36:03.676Z,10.23
2022-10-23T05:38:33.517Z,10.27
2022-10-23T05:41:00.020Z,10.28
2022-10-23T05:43:27.264Z,10.30
2022-10-23T05:45:53.955Z,10.33
2022-10-23T05:48:29.754Z,10.47
2022-10-23T05:51:07.561Z,10.49
2022-10-23T05:53:36.210Z,10.52
2022-10-23T05:56:08.657Z,10.60
2022-10-23T05:58:35.108Z,10.64
2022-10-23T06:01:08.869Z,10.65
2022-10-23T06:03:36.851Z,10.70
2022-10-23T06:06:04.026Z,10.71
2022-10-23T06:08:31.459Z,10.69
2022-10-23T06:10:57.839Z,10.71
2022-10-23T06:13:24.203Z,10.72
2022-10-23T06:15:50.556Z,10.75
2022-10-23T06:18:16.948Z,10.77
2022-10-23T06:20:43.259Z,10.77
2022-10-23T06:23:09.571Z,10.77
2022-10-23T06:25:35.893Z,10.76
2022-10-23T06:28:02.239Z,10.76
2022-10-23T06:30:28.721Z,10.75
2022-10-23T06:32:55.513Z,10.76
2022-10-23T06:35:21.840Z,10.78
2022-10-23T06:37:48.171Z,10.79
2022-10-23T06:40:14.608Z,10.79
2022-10-23T06:42:41.174Z,10.81
2022-10-23T06:45:07.973Z,10.83
2022-10-23T06:47:34.534Z,10.83
2022-10-23T06:50:00.909Z,10.85
2022-10-23T06:52:47.779Z,10.87
2022-10-23T06:55:14.842Z,10.89
2022-10-23T06:57:41.862Z,10.94
2022-10-23T07:00:09.547Z,10.97
2022-10-23T07:02:36.509Z,10.99
2022-10-23T07:05:03.250Z,11.01
2022-10-23T07:07:30.658Z,11.03
2022-10-23T07:09:56.980Z,11.05
2022-10-23T07:12:23.348Z,11.08
2022-10-23T07:14:49.691Z,11.11
2022-10-23T07:17:16.102Z,11.17
2022-10-23T07:19:42.466Z,11.25
2022-10-23T07:22:10.745Z,11.31
2022-10-23T07:24:40.192Z,11.31
2022-10-23T07:27:06.910Z,11.32
2022-10-23T07:29:33.797Z,11.37
2022-10-23T07:32:04.394Z,11.41
2022-10-23T07:34:31.995Z,11.50
2022-10-23T07:36:58.316Z,11.57
2022-10-23T07:39:24.649Z,11.59
2022-10-23T07:41:50.953Z,11.66
2022-10-23T07:44:17.543Z,11.73
2022-10-23T07:46:43.854Z,11.78
2022-10-23T07:49:11.187Z,11.83
2022-10-23T07:51:37.520Z,11.88
2022-10-23T07:54:03.937Z,11.96
2022-10-23T07:56:31.329Z,12.02
2022-10-23T07:58:58.019Z,12.06
2022-10-23T08:01:38.443Z,12.13
2022-10-23T08:04:05.699Z,12.18
2022-10-23T08:06:35.322Z,12.26
2022-10-23T08:09:05.384Z,12.33
2022-10-23T08:11:35.404Z,12.41
2022-10-23T08:14:04.559Z,12.48
2022-10-23T08:16:32.052Z,12.54
2022-10-23T08:18:58.480Z,12.60
2022-10-23T08:21:24.821Z,12.65
2022-10-23T08:23:56.812Z,12.70
2022-10-23T08:26:24.601Z,12.77
2022-10-23T08:28:54.208Z,12.82
2022-10-23T08:31:21.621Z,12.88
2022-10-23T08:36:22.070Z,12.99
2022-10-23T08:38:48.692Z,13.08
2022-10-23T08:41:25.261Z,13.12
2022-10-23T08:43:58.496Z,13.18
2022-10-23T08:46:30.032Z,13.23
2022-10-23T08:49:20.513Z,13.29
2022-10-23T08:51:50.330Z,13.34
2022-10-23T08:54:28.463Z,13.40
2022-10-23T08:57:03.372Z,13.45
2022-10-23T08:59:56.241Z,13.52
2022-10-23T09:02:30.431Z,13.60
2022-10-23T09:04:58.486Z,13.70
2022-10-23T09:07:43.266Z,13.80
2022-10-23T09:10:51.542Z,13.90
2022-10-23T09:13:48.832Z,13.97
2022-10-23T09:16:30.361Z,14.04
2022-10-23T09:18:57.973Z,14.08
2022-10-23T09:21:28.805Z,14.12
2022-10-23T09:23:56.040Z,14.16
2022-10-23T09:26:22.491Z,14.15
2022-10-23T09:28:51.452Z,14.20
2022-10-23T09:31:19.285Z,14.21
2022-10-23T09:34:01.415Z,14.22
2022-10-23T09:36:29.300Z,14.21
2022-10-23T09:38:58.841Z,14.22
2022-10-23T09:41:29.770Z,14.23
2022-10-23T09:44:17.473Z,14.24
2022-10-23T09:46:46.823Z,14.25
2022-10-23T09:49:23.771Z,14.23
2022-10-23T09:51:54.557Z,14.20
2022-10-23T09:54:24.056Z,14.22
2022-10-23T09:56:52.999Z,14.25
2022-10-23T09:59:27.260Z,14.30
2022-10-23T10:01:57.260Z,14.36
2022-10-23T10:04:38.292Z,14.41
2022-10-23T10:07:17.730Z,14.46
2022-10-23T10:09:44.020Z,14.51
2022-10-23T10:12:28.674Z,14.56
2022-10-23T10:15:04.208Z,14.63
2022-10-23T10:17:43.429Z,14.66
2022-10-23T10:20:25.545Z,14.71
2022-10-23T10:23:00.731Z,14.73
2022-10-23T10:25:49.869Z,14.78
2022-10-23T10:28:37.556Z,14.80
2022-10-23T10:31:37.949Z,14.83
2022-10-23T10:34:14.273Z,14.84
2022-10-23T10:36:55.372Z,14.88
2022-10-23T10:39:37.906Z,14.91
2022-10-23T10:43:01.713Z,14.96
2022-10-23T10:45:40.886Z,14.99
2022-10-23T10:48:31.325Z,15.04
2022-10-23T10:51:10.657Z,15.08
2022-10-23T10:53:55.678Z,15.11
2022-10-23T10:56:25.131Z,15.15
2022-10-23T10:58:56.411Z,15.16
2022-10-23T11:01:35.034Z,15.17
2022-10-23T11:04:23.472Z,15.20
2022-10-23T11:06:53.821Z,15.26
2022-10-23T11:09:22.143Z,15.29
2022-10-23T11:11:49.055Z,15.36
2022-10-23T11:14:24.090Z,15.42
2022-10-23T11:17:16.868Z,15.44
2022-10-23T11:20:00.911Z,15.47
2022-10-23T11:23:12.496Z,15.51
2022-10-23T11:26:08.297Z,15.52
2022-10-23T11:28:53.832Z,15.58
2022-10-23T11:31:51.559Z,15.71
2022-10-23T11:34:54.944Z,15.82
2022-10-23T11:37:22.896Z,15.98
2022-10-23T11:40:04.141Z,16.11
2022-10-23T11:42:33.901Z,16.25
2022-10-23T11:45:00.503Z,16.39
2022-10-23T11:47:39.933Z,16.52
2022-10-23T11:50:06.590Z,16.62
2022-10-23T11:52:38.749Z,16.75
2022-10-23T11:55:29.326Z,16.88
2022-10-23T11:58:04.850Z,16.92
2022-10-23T12:00:33.862Z,16.98
2022-10-23T12:03:01.714Z,17.06
2022-10-23T12:05:40.405Z,17.12
2022-10-23T12:08:22.022Z,17.18
2022-10-23T12:10:55.109Z,17.21
2022-10-23T12:13:38.572Z,17.24
2022-10-23T12:16:07.507Z,17.28
2022-10-23T12:18:44.403Z,17.29
2022-10-23T12:24:03.567Z,17.31
2022-10-23T12:26:54.189Z,17.42
2022-10-23T12:29:46.736Z,17.42
2022-10-23T12:32:34.488Z,17.42
2022-10-23T12:35:25.765Z,17.42
2022-10-23T12:38:14.912Z,17.43
2022-10-23T12:40:45.578Z,17.30
2022-10-23T12:43:32.905Z,17.23
2022-10-23T12:46:21.870Z,17.36
2022-10-23T12:48:50.488Z,17.40
2022-10-23T12:51:34.641Z,17.43
2022-10-23T12:54:02.952Z,17.37
2022-10-23T12:56:35.505Z,17.35
2022-10-23T12:59:02.660Z,17.33
2022-10-23T13:01:31.535Z,17.35
2022-10-23T13:04:02.548Z,17.37
2022-10-23T13:06:29.283Z,17.38
2022-10-23T13:08:57.093Z,17.40
2022-10-23T13:11:25.665Z,17.45
2022-10-23T13:13:52.595Z,17.46
2022-10-23T13:16:22.158Z,17.50
2022-10-23T13:18:48.957Z,17.47
2022-10-23T13:21:23.737Z,17.50
2022-10-23T13:23:51.529Z,17.52
2022-10-23T13:26:32.311Z,17.53
2022-10-23T13:29:00.696Z,17.57
2022-10-23T13:31:35.343Z,17.62
2022-10-23T13:34:01.650Z,17.62
2022-10-23T13:36:30.541Z,17.65
2022-10-23T13:39:09.064Z,17.74
2022-10-23T13:41:40.881Z,17.85
2022-10-23T13:44:07.395Z,17.89
2022-10-23T13:46:33.716Z,17.93
2022-10-23T13:49:00.157Z,17.98
2022-10-23T13:51:32.445Z,18.01
2022-10-23T13:53:58.836Z,18.02
2022-10-23T13:56:27.540Z,17.99
2022-10-23T13:58:54.256Z,18.03
2022-10-23T14:01:24.556Z,18.02
2022-10-23T14:03:52.388Z,18.02
2022-10-23T14:06:18.732Z,18.01
2022-10-23T14:08:45.595Z,17.96
2022-10-23T14:13:41.702Z,17.92
2022-10-23T14:16:11.464Z,17.87
2022-10-23T14:18:37.812Z,17.85
2022-10-23T14:21:06.377Z,17.89
2022-10-23T14:23:32.819Z,17.90
2022-10-23T14:26:11.469Z,17.91
2022-10-23T14:28:38.410Z,17.93
2022-10-23T14:31:23.128Z,18.10
2022-10-23T14:33:55.933Z,18.31
2022-10-23T14:36:23.276Z,18.30
2022-10-23T14:38:53.569Z,18.26
2022-10-23T14:41:21.841Z,18.20
2022-10-23T14:43:48.211Z,18.14
2022-10-23T14:46:17.147Z,18.03
2022-10-23T14:48:46.210Z,17.98
2022-10-23T14:51:28.592Z,17.92
2022-10-23T14:54:01.693Z,17.92
2022-10-23T14:56:34.069Z,17.88
2022-10-23T14:59:03.786Z,17.86
2022-10-23T15:01:36.561Z,17.85
2022-10-23T15:04:03.375Z,17.85
2022-10-23T15:06:29.947Z,17.85
2022-10-23T15:08:56.329Z,17.80
2022-10-23T15:11:24.221Z,17.76
2022-10-23T15:13:50.861Z,17.72
2022-10-23T15:16:17.707Z,17.64
2022-10-23T15:18:44.009Z,17.62
2022-10-23T15:21:10.453Z,17.56
2022-10-23T15:23:42.208Z,17.52
2022-10-23T15:26:12.633Z,17.45
2022-10-23T15:28:39.068Z,17.39
2022-10-23T15:31:06.311Z,17.36
2022-10-23T15:33:32.620Z,17.30
2022-10-23T15:35:58.962Z,17.27
2022-10-23T15:38:26.039Z,17.21
2022-10-23T15:40:58.259Z,17.17
2022-10-23T15:43:24.578Z,17.14
2022-10-23T15:45:50.906Z,17.11
2022-10-23T15:48:17.365Z,17.06
2022-10-23T15:50:43.743Z,17.04
2022-10-23T15:53:10.104Z,17.03
2022-10-23T15:55:36.651Z,17.02
2022-10-23T15:58:04.834Z,17.00
2022-10-23T16:03:06.984Z,16.95
2022-10-23T16:05:33.320Z,16.94
2022-10-23T16:07:59.716Z,16.92
2022-10-23T16:10:26.074Z,16.89
2022-10-23T16:12:52.520Z,16.87
2022-10-23T16:15:18.902Z,16.83
2022-10-23T16:17:45.644Z,16.80
2022-10-23T16:20:12.235Z,16.79
2022-10-23T16:22:41.398Z,16.77
2022-10-23T16:25:10.726Z,16.75
2022-10-23T16:27:37.056Z,16.74
2022-10-23T16:30:06.127Z,16.74
2022-10-23T16:32:32.527Z,16.76
2022-10-23T16:34:58.830Z,16.74
2022-10-23T16:37:25.168Z,16.73
2022-10-23T16:39:51.495Z,16.72
2022-10-23T16:44:44.136Z,16.68
2022-10-23T16:47:10.694Z,16.65
2022-10-23T16:49:37.087Z,16.61
2022-10-23T16:52:03.463Z,16.57
2022-10-23T16:54:29.807Z,16.55
2022-10-23T16:56:56.158Z,16.55
2022-10-23T16:59:22.483Z,16.57
2022-10-23T17:01:48.984Z,16.54
2022-10-23T17:04:15.431Z,16.51
2022-10-23T17:06:41.880Z,16.49
2022-10-23T17:09:08.197Z,16.45
2022-10-23T17:11:39.871Z,16.45
2022-10-23T17:14:11.156Z,16.42
2022-10-23T17:16:41.217Z,16.42
2022-10-23T17:19:20.963Z,16.39
2022-10-23T17:21:54.645Z,16.41
2022-10-23T17:24:21.699Z,16.44
2022-10-23T17:26:48.453Z,16.46
2022-10-23T17:29:15.395Z,16.39
2022-10-23T17:31:45.089Z,16.35
2022-10-23T17:34:13.945Z,16.32
2022-10-23T17:36:43.663Z,16.34
2022-10-23T17:39:12.183Z,16.32
2022-10-23T17:41:38.993Z,16.34
2022-10-23T17:44:05.433Z,16.31
2022-10-23T17:46:32.131Z,16.32
2022-10-23T17:48:59.973Z,16.32
2022-10-23T17:51:30.461Z,16.33
2022-10-23T17:54:00.828Z,16.34
2022-10-23T17:56:29.688Z,16.30
2022-10-23T17:59:00.852Z,16.26
2022-10-23T18:01:29.069Z,16.33
2022-10-23T18:03:56.880Z,16.34
2022-10-23T18:06:29.548Z,16.35
2022-10-23T18:08:56.372Z,16.37
2022-10-23T18:11:25.299Z,16.39
2022-10-23T18:13:52.480Z,16.38
2022-10-23T18:16:19.817Z,16.42
2022-10-23T18:18:51.800Z,16.49
2022-10-23T18:21:20.273Z,16.53
2022-10-23T18:23:47.185Z,16.55
2022-10-23T18:26:34.812Z,16.57
2022-10-23T18:29:03.391Z,16.58
2022-10-23T18:31:30.269Z,16.53
2022-10-23T18:33:58.685Z,16.58
2022-10-23T18:36:29.049Z,16.61
2022-10-23T18:41:28.023Z,16.63
2022-10-23T18:43:54.710Z,16.64
2022-10-23T18:46:21.812Z,16.71
2022-10-23T18:48:50.634Z,16.74
2022-10-23T18:51:19.850Z,16.77
2022-10-23T18:53:46.945Z,16.74
2022-10-23T18:56:22.941Z,16.70
2022-10-23T18:58:57.535Z,16.72
2022-10-23T19:01:26.841Z,16.73
2022-10-23T19:03:54.315Z,16.75
2022-10-23T19:06:22.644Z,16.75
2022-10-23T19:08:49.704Z,16.73
2022-10-23T19:11:20.975Z,16.69
2022-10-23T19:13:47.417Z,16.63
2022-10-23T19:16:34.449Z,16.63
2022-10-23T19:19:15.347Z,16.60
2022-10-23T19:21:42.450Z,16.53
2022-10-23T19:24:14.475Z,16.50
2022-10-23T19:26:42.576Z,16.46
2022-10-23T19:29:13.135Z,16.44
2022-10-23T19:31:43.126Z,16.45
2022-10-23T19:34:09.497Z,16.52
2022-10-23T19:36:35.965Z,16.48
2022-10-23T19:39:02.276Z,16.50
2022-10-23T19:41:30.582Z,16.48
2022-10-23T19:43:56.895Z,16.43
2022-10-23T19:46:23.224Z,16.36
2022-10-23T19:48:49.598Z,16.31
2022-10-23T19:51:16.000Z,16.24
2022-10-23T19:53:42.607Z,16.17
2022-10-23T19:56:11.028Z,16.13
2022-10-23T19:58:38.050Z,16.07
2022-10-23T20:01:14.502Z,16.07
2022-10-23T20:03:42.598Z,16.08
2022-10-23T20:06:10.672Z,16.03
2022-10-23T20:08:37.232Z,15.97
2022-10-23T20:11:03.726Z,15.91
2022-10-23T20:13:30.353Z,15.88
2022-10-23T20:15:56.677Z,15.92
2022-10-23T20:18:23.095Z,15.91
2022-10-23T20:20:49.485Z,15.87
2022-10-23T20:23:15.826Z,15.84
2022-10-23T20:25:42.199Z,15.82
2022-10-23T20:28:10.336Z,15.84
2022-10-23T20:30:41.176Z,15.83
2022-10-23T20:33:07.497Z,15.79
2022-10-23T20:35:41.416Z,15.72
2022-10-23T20:38:08.483Z,15.62
2022-10-23T20:40:34.903Z,15.57
2022-10-23T20:43:01.421Z,15.51
2022-10-23T20:45:27.827Z,15.43
2022-10-23T20:47:54.156Z,15.35
2022-10-23T20:50:20.821Z,15.28
2022-10-23T20:52:50.240Z,15.22
2022-10-23T20:55:16.711Z,15.16
2022-10-23T20:57:43.171Z,15.16
2022-10-23T21:00:11.297Z,15.16
2022-10-23T21:02:37.755Z,15.10
2022-10-23T21:05:04.380Z,15.05
2022-10-23T21:07:30.718Z,15.02
2022-10-23T21:09:57.120Z,15.00
2022-10-23T21:12:23.423Z,14.98
2022-10-23T21:14:49.765Z,14.93
2022-10-23T21:17:17.719Z,14.92
2022-10-23T21:19:44.246Z,14.91
2022-10-23T21:22:10.620Z,14.92
2022-10-23T21:24:36.935Z,14.91
2022-10-23T21:27:03.292Z,14.89
2022-10-23T21:29:29.654Z,14.86
2022-10-23T21:31:58.678Z,14.82
2022-10-23T21:34:26.249Z,14.81
2022-10-23T21:39:39.373Z,14.78
2022-10-23T21:42:05.860Z,14.76
2022-10-23T21:44:32.412Z,14.77
2022-10-23T21:46:58.776Z,14.77
2022-10-23T21:49:25.101Z,14.75
2022-10-23T21:51:51.444Z,14.73
2022-10-23T21:54:17.792Z,14.72
2022-10-23T21:56:49.435Z,14.71
2022-10-23T21:59:18.134Z,14.71
2022-10-23T22:01:45.943Z,14.70
2022-10-23T22:04:14.351Z,14.71
2022-10-23T22:06:42.857Z,14.70
2022-10-23T22:09:13.606Z,14.71
2022-10-23T22:11:40.746Z,14.74
2022-10-23T22:14:07.390Z,14.76
2022-10-23T22:16:34.002Z,14.77
2022-10-23T22:19:00.360Z,14.78
2022-10-23T22:21:29.441Z,14.79
2022-10-23T22:23:58.234Z,14.78
2022-10-23T22:26:26.235Z,14.77
2022-10-23T22:28:54.993Z,14.75
2022-10-23T22:31:24.536Z,14.73
2022-10-23T22:33:51.664Z,14.71
2022-10-23T22:36:18.617Z,14.70
2022-10-23T22:38:45.206Z,14.72
2022-10-23T22:41:11.899Z,14.70
2022-10-23T22:43:38.360Z,14.73
2022-10-23T22:46:14.015Z,14.72
2022-10-23T22:48:40.721Z,14.73
2022-10-23T22:51:09.129Z,14.80
2022-10-23T22:53:35.676Z,14.80
2022-10-23T22:56:06.128Z,14.77
2022-10-23T22:58:32.500Z,14.73
2022-10-23T23:01:21.164Z,14.73
2022-10-23T23:03:48.107Z,14.72
2022-10-23T23:06:15.369Z,14.74
2022-10-23T23:08:42.268Z,14.73
2022-10-23T23:11:12.075Z,14.73
2022-10-23T23:13:39.105Z,14.76
2022-10-23T23:16:05.749Z,14.75
2022-10-23T23:18:33.340Z,14.73
2022-10-23T23:21:04.300Z,14.70
2022-10-23T23:23:30.971Z,14.63
2022-10-23T23:25:57.393Z,14.56
2022-10-23T23:28:24.024Z,14.51
2022-10-23T23:30:50.800Z,14.50
2022-10-23T23:33:22.175Z,14.46
2022-10-23T23:35:48.551Z,14.45
2022-10-23T23:38:14.887Z,14.41
2022-10-23T23:40:49.265Z,14.39
2022-10-23T23:43:15.585Z,14.42
2022-10-23T23:45:41.931Z,14.42
2022-10-23T23:48:08.275Z,14.45
2022-10-23T23:50:34.608Z,14.49
2022-10-23T23:53:00.976Z,14.53
2022-10-23T23:55:27.330Z,14.58
2022-10-23T23:57:53.689Z,14.66
